Lake Mills, WI (53551)

6:05 PM CST on February 12, 2016 (GMT -0600)
Cambridge | | Change Station
CLOSE
Current Station
Personal Weather Station
Location: Cambridge, WI
Elevation: 883 ft
Nearby Weather Stations
Active Advisory: Wind Chill Advisory

Elev 883 ft 43.00 °N, 89.01 °W | Updated 14 seconds ago

Clear
Clear
11.7 °F
Feels Like 12 °F
N
2.5
Wind Variable Wind from NNE

Today
High -- | Low -- °F
--% Chance of Precip.
Yesterday
High -- | Low -- °F
Precip. -- in
Pressure 30.31 in
Visibility 10.0 miles
Clouds Clear
Windchill 12 °F
Dew Point -6 °F
Humidity 45%
Rainfall Not available.
Snow Depth Not available.
6:58 AM 5:22 PM
Waxing Crescent, 25% visible
METAR KRYV 122355Z AUTO 32016G25KT 10SM CLR M12/M21 A3031 RMK AO2 T11241213 11073 21124
Pressure 30.31 in
Visibility 10.0 miles
Clouds Clear
Windchill 12 °F
Dew Point -6 °F
Humidity 45%
Rainfall Not available.
Snow Depth Not available.
6:58 AM 5:22 PM
Waxing Crescent, 25% visible
METAR KRYV 122355Z AUTO 32016G25KT 10SM CLR M12/M21 A3031 RMK AO2 T11241213 11073 21124

10-Day Weather Forecast

Almanac

Astronomy

Feb. 12, 2016 Rise Set
Actual Time
Civil Twilight
Nautical Twilight
Astronomical Twilight
Moon
Length of Visible Light
Length of Day
Tomorrow will be .
, % of the Moon is Illuminated

Today's Extremes

State Highs State Lows

Community

WunderPhotos

Upload Photos

1,892,437 photos uploaded!

WunderBlog® & News

Nearby

Air Quality

  Air Quality AQ Index Pollutant
Not available.

Snow Depth

Station Depth Elevation

Earthquake Activity

City Distance Mag. Time & Date
Minimum magnitude displayed is 2.5.

Coastal Water Temperatures

Place Temperature

Stations

Nearby Weather Stations

Station Location Temp. Windchill Dew Point Humidity Wind Precip. Elev Updated Type
                   

Watches & Warnings

Wind Chill Advisory
Issued: 3:05 PM CST Feb. 12, 2016 – National Weather Service

... Wind Chill Advisory remains in effect from midnight tonight to
9 am CST Saturday...

A Wind Chill Advisory remains in effect from midnight tonight to
9 am CST Saturday.

* Tonight through early Saturday.

* Wind chill values of 20 to 25 degrees below zero are expected.

Precautionary/preparedness actions...

A Wind Chill Advisory means that very cold air and strong winds
will combine to generate low wind chills. This will result in
frost bite and lead to hypothermia if precautions are not taken.
If you must venture outdoors... make sure you wear a hat and
gloves.